createdAt,value
2019-01-04T00:00:51.148Z,5.30
2019-01-04T00:03:20.591Z,5.30
2019-01-04T00:05:49.995Z,5.30
2019-01-04T00:08:19.432Z,5.30
2019-01-04T00:10:48.876Z,5.30
2019-01-04T00:13:18.305Z,5.30
2019-01-04T00:15:47.734Z,5.30
2019-01-04T00:18:17.161Z,5.30
2019-01-04T00:20:46.666Z,5.20
2019-01-04T00:23:16.096Z,5.20
2019-01-04T00:25:45.522Z,5.20
2019-01-04T00:28:14.929Z,5.10
2019-01-04T00:30:45.340Z,5.10
2019-01-04T00:33:14.770Z,5.20
2019-01-04T00:35:44.263Z,5.20
2019-01-04T00:38:13.673Z,5.20
2019-01-04T00:40:43.135Z,5.30
2019-01-04T00:43:12.578Z,5.30
2019-01-04T00:45:41.994Z,5.30
2019-01-04T00:48:11.409Z,5.30
2019-01-04T00:50:40.861Z,5.30
2019-01-04T00:53:10.296Z,5.30
2019-01-04T00:56:13.309Z,5.20
2019-01-04T00:59:09.946Z,5.20
2019-01-04T01:02:16.905Z,5.20
2019-01-04T01:05:48.215Z,5.20
2019-01-04T01:09:02.381Z,5.30
2019-01-04T01:12:04.131Z,5.30
2019-01-04T01:15:14.316Z,5.30
2019-01-04T01:18:39.613Z,5.30
2019-01-04T01:21:22.418Z,5.30
2019-01-04T01:24:32.042Z,5.30
2019-01-04T01:27:47.817Z,5.30
2019-01-04T01:30:53.219Z,5.20
2019-01-04T01:33:53.049Z,5.30
2019-01-04T01:37:18.749Z,5.30
2019-01-04T01:40:26.902Z,5.30
2019-01-04T01:43:40.072Z,5.30
2019-01-04T01:46:45.949Z,5.20
2019-01-04T01:50:01.629Z,5.20
2019-01-04T01:52:38.497Z,5.20
2019-01-04T01:55:11.182Z,5.20
2019-01-04T01:57:40.597Z,5.10
2019-01-04T02:00:10.217Z,5.10
2019-01-04T02:02:39.641Z,5.10
2019-01-04T02:05:09.061Z,5.10
2019-01-04T02:07:38.609Z,5.10
2019-01-04T02:10:08.966Z,5.10
2019-01-04T02:12:38.381Z,5.20
2019-01-04T02:15:08.265Z,5.20
2019-01-04T02:17:37.785Z,5.20
2019-01-04T02:20:07.469Z,5.20
2019-01-04T02:22:36.899Z,5.20
2019-01-04T02:25:06.490Z,5.20
2019-01-04T02:27:35.969Z,5.20
2019-01-04T02:30:07.670Z,5.20
2019-01-04T02:32:37.285Z,5.30
2019-01-04T02:35:06.704Z,5.30
2019-01-04T02:37:36.121Z,5.30
2019-01-04T02:40:05.549Z,5.30
2019-01-04T02:42:34.962Z,5.30
2019-01-04T02:45:04.452Z,5.30
2019-01-04T02:47:33.940Z,5.30
2019-01-04T02:50:03.608Z,5.40
2019-01-04T02:52:33.029Z,5.40
2019-01-04T02:55:02.517Z,5.40
2019-01-04T02:57:31.926Z,5.40
2019-01-04T03:00:01.350Z,5.40
2019-01-04T03:02:30.764Z,5.30
2019-01-04T03:05:00.604Z,5.30
2019-01-04T03:07:30.092Z,5.40
2019-01-04T03:09:59.550Z,5.40
2019-01-04T03:12:29.122Z,5.40
2019-01-04T03:14:58.569Z,5.40
2019-01-04T03:17:27.972Z,5.40
2019-01-04T03:19:57.403Z,5.40
2019-01-04T03:22:26.827Z,5.40
2019-01-04T03:24:56.230Z,5.40
2019-01-04T03:27:25.695Z,5.40
2019-01-04T03:29:55.169Z,5.50
2019-01-04T03:32:24.567Z,5.40
2019-01-04T03:34:55.121Z,5.40
2019-01-04T03:37:24.550Z,5.40
2019-01-04T03:39:53.957Z,5.30
2019-01-04T03:42:23.390Z,5.30
2019-01-04T03:44:52.821Z,5.40
2019-01-04T03:47:22.245Z,5.40
2019-01-04T03:49:51.666Z,5.40
2019-01-04T03:52:21.146Z,5.40
2019-01-04T03:54:50.610Z,5.40
2019-01-04T03:57:20.064Z,5.40
2019-01-04T03:59:49.482Z,5.40
2019-01-04T04:02:18.903Z,5.40
2019-01-04T04:04:48.345Z,5.40
2019-01-04T04:07:17.757Z,5.40
2019-01-04T04:09:47.186Z,5.40
2019-01-04T04:12:16.605Z,5.50
2019-01-04T04:14:46.026Z,5.50
2019-01-04T04:17:15.456Z,5.50
2019-01-04T04:19:44.865Z,5.60
2019-01-04T04:22:14.597Z,5.60
2019-01-04T04:24:44.010Z,5.50
2019-01-04T04:27:13.425Z,5.50
2019-01-04T04:29:42.841Z,5.50
2019-01-04T04:32:12.303Z,5.50
2019-01-04T04:34:41.691Z,5.50
2019-01-04T04:37:11.176Z,5.60
2019-01-04T04:39:40.594Z,5.60
2019-01-04T04:42:10.049Z,5.60
2019-01-04T04:44:39.509Z,5.60
2019-01-04T04:47:08.913Z,5.60
2019-01-04T04:49:38.343Z,5.60
2019-01-04T04:52:07.790Z,5.60
2019-01-04T04:54:37.207Z,5.60
2019-01-04T04:57:06.612Z,5.60
2019-01-04T04:59:36.043Z,5.60
2019-01-04T05:02:05.534Z,5.60
2019-01-04T05:04:35.821Z,5.60
2019-01-04T05:07:05.299Z,5.60
2019-01-04T05:09:34.722Z,5.60
2019-01-04T05:12:04.233Z,5.50
2019-01-04T05:14:33.677Z,5.50
2019-01-04T05:17:03.132Z,5.50
2019-01-04T05:19:32.557Z,5.50
2019-01-04T05:22:01.967Z,5.50
2019-01-04T05:24:31.395Z,5.60
2019-01-04T05:27:00.833Z,5.60
2019-01-04T05:29:30.261Z,5.60
2019-01-04T05:31:59.689Z,5.60
2019-01-04T05:34:29.121Z,5.60
2019-01-04T05:36:58.585Z,5.60
2019-01-04T05:39:28.009Z,5.50
2019-01-04T05:41:57.432Z,5.50
2019-01-04T05:44:26.889Z,5.50
2019-01-04T05:46:56.350Z,5.50
2019-01-04T05:49:25.813Z,5.50
2019-01-04T05:51:55.283Z,5.50
2019-01-04T05:54:24.953Z,5.60
2019-01-04T05:56:54.389Z,5.60
2019-01-04T05:59:23.802Z,5.60
2019-01-04T06:01:53.229Z,5.60
2019-01-04T06:04:22.674Z,5.50
2019-01-04T06:06:52.094Z,5.60
2019-01-04T06:09:21.505Z,5.60
2019-01-04T06:11:50.914Z,5.60
2019-01-04T06:14:20.349Z,5.60
2019-01-04T06:16:49.836Z,5.60
2019-01-04T06:19:19.258Z,5.60
2019-01-04T06:21:48.658Z,5.60
2019-01-04T06:24:18.071Z,5.60
2019-01-04T06:26:47.986Z,5.60
2019-01-04T06:29:17.415Z,5.60
2019-01-04T06:31:46.833Z,5.60
2019-01-04T06:34:16.493Z,5.60
2019-01-04T06:36:46.410Z,5.50
2019-01-04T06:39:15.822Z,5.50
2019-01-04T06:41:45.213Z,5.50
2019-01-04T06:44:14.643Z,5.50
2019-01-04T06:47:18.483Z,5.50
2019-01-04T06:49:49.085Z,5.50
2019-01-04T06:52:20.014Z,5.40
2019-01-04T06:55:38.689Z,5.40
2019-01-04T06:58:08.137Z,5.40
2019-01-04T07:00:37.558Z,5.40
2019-01-04T07:03:06.976Z,5.40
2019-01-04T07:05:36.415Z,5.40
2019-01-04T07:08:05.841Z,5.40
2019-01-04T07:10:35.281Z,5.40
2019-01-04T07:13:04.983Z,5.40
2019-01-04T07:15:34.480Z,5.40
2019-01-04T07:18:03.917Z,5.40
2019-01-04T07:20:33.348Z,5.40
2019-01-04T07:23:02.906Z,5.40
2019-01-04T07:25:32.357Z,5.30
2019-01-04T07:28:01.815Z,5.30
2019-01-04T07:30:31.299Z,5.30
2019-01-04T07:33:00.881Z,5.30
2019-01-04T07:35:30.356Z,5.20
2019-01-04T07:37:59.861Z,5.20
2019-01-04T07:40:29.329Z,5.20
2019-01-04T07:42:58.793Z,5.20
2019-01-04T07:45:28.319Z,5.20
2019-01-04T07:47:57.780Z,5.20
2019-01-04T07:50:27.201Z,5.20
2019-01-04T07:52:56.965Z,5.20
2019-01-04T07:55:26.689Z,5.20
2019-01-04T07:57:56.117Z,5.10
2019-01-04T08:00:26.639Z,5.20
2019-01-04T08:02:58.736Z,5.20
2019-01-04T08:05:28.981Z,5.20
2019-01-04T08:07:58.423Z,5.20
2019-01-04T08:10:27.898Z,5.20
2019-01-04T08:12:57.302Z,5.20
2019-01-04T08:15:26.728Z,5.20
2019-01-04T08:17:56.138Z,5.20
2019-01-04T08:20:25.605Z,5.20
2019-01-04T08:22:55.085Z,5.20
2019-01-04T08:25:24.538Z,5.20
2019-01-04T08:27:53.949Z,5.20
2019-01-04T08:30:23.383Z,5.20
2019-01-04T08:32:52.785Z,5.20
2019-01-04T08:35:22.934Z,5.20
2019-01-04T08:37:52.393Z,5.30
2019-01-04T08:40:21.894Z,5.30
2019-01-04T08:42:51.593Z,5.30
2019-01-04T08:45:21.031Z,5.30
2019-01-04T08:47:50.453Z,5.30
2019-01-04T08:50:19.919Z,5.30
2019-01-04T08:52:49.643Z,5.30
2019-01-04T08:55:28.163Z,5.30
2019-01-04T08:57:57.609Z,5.30
2019-01-04T09:00:27.042Z,5.30
2019-01-04T09:02:56.487Z,5.40
2019-01-04T09:05:26.194Z,5.40
2019-01-04T09:07:55.617Z,5.40
2019-01-04T09:10:25.041Z,5.40
2019-01-04T09:12:54.495Z,5.30
2019-01-04T09:15:23.957Z,5.40
2019-01-04T09:17:53.433Z,5.40
2019-01-04T09:20:22.883Z,5.40
2019-01-04T09:22:52.317Z,5.30
2019-01-04T09:25:21.765Z,5.30
2019-01-04T09:27:51.193Z,5.30
2019-01-04T09:30:20.627Z,5.40
2019-01-04T09:32:50.061Z,5.40
2019-01-04T09:35:19.501Z,5.40
2019-01-04T09:37:52.309Z,5.40
2019-01-04T09:40:22.323Z,5.40
2019-01-04T09:42:51.748Z,5.40
2019-01-04T09:45:21.185Z,5.40
2019-01-04T09:47:50.682Z,5.30
2019-01-04T09:50:20.146Z,5.40
2019-01-04T09:52:49.717Z,5.40
2019-01-04T09:55:19.177Z,5.40
2019-01-04T09:57:50.222Z,5.40
2019-01-04T10:00:19.641Z,5.30
2019-01-04T10:02:49.158Z,5.40
2019-01-04T10:05:18.614Z,5.40
2019-01-04T10:07:48.045Z,5.40
2019-01-04T10:10:17.489Z,5.40
2019-01-04T10:12:46.927Z,5.40
2019-01-04T10:15:16.834Z,5.40
2019-01-04T10:17:46.257Z,5.40
2019-01-04T10:20:15.687Z,5.40
2019-01-04T10:22:45.137Z,5.40
2019-01-04T10:25:14.581Z,5.40
2019-01-04T10:27:44.006Z,5.40
2019-01-04T10:30:27.607Z,5.30
2019-01-04T10:32:57.031Z,5.30
2019-01-04T10:35:26.462Z,5.30
2019-01-04T10:37:55.907Z,5.30
2019-01-04T10:40:30.828Z,5.30
2019-01-04T10:43:00.286Z,5.30
2019-01-04T10:45:29.766Z,5.30
2019-01-04T10:47:59.257Z,5.30
2019-01-04T10:50:28.669Z,5.30
2019-01-04T10:52:58.113Z,5.30
2019-01-04T10:55:27.601Z,5.30
2019-01-04T10:57:57.054Z,5.30
2019-01-04T11:00:26.617Z,5.30
2019-01-04T11:02:56.061Z,5.30
2019-01-04T11:05:25.501Z,5.30
2019-01-04T11:07:54.937Z,5.30
2019-01-04T11:10:24.366Z,5.30
2019-01-04T11:12:53.797Z,5.30
2019-01-04T11:15:23.232Z,5.30
2019-01-04T11:17:52.629Z,5.30
2019-01-04T11:20:38.841Z,5.30
2019-01-04T11:23:47.469Z,5.30
2019-01-04T11:26:26.801Z,5.30
2019-01-04T11:29:18.521Z,5.20
2019-01-04T11:32:00.121Z,5.30
2019-01-04T11:35:20.607Z,5.20
2019-01-04T11:38:16.907Z,5.20
2019-01-04T11:41:18.950Z,5.20
2019-01-04T11:44:16.199Z,5.20
2019-01-04T11:47:29.958Z,5.20
2019-01-04T11:50:29.199Z,5.30
2019-01-04T11:53:04.946Z,5.30
2019-01-04T11:55:34.361Z,5.30
2019-01-04T11:58:03.867Z,5.40
2019-01-04T12:00:33.333Z,5.30
2019-01-04T12:03:02.777Z,5.30
2019-01-04T12:05:32.206Z,5.40
2019-01-04T12:08:01.643Z,5.40
2019-01-04T12:10:31.059Z,5.40
2019-01-04T12:13:00.558Z,5.40
2019-01-04T12:15:29.969Z,5.40
2019-01-04T12:17:59.456Z,5.40
2019-01-04T12:20:29.137Z,5.50
2019-01-04T12:22:58.550Z,5.50
2019-01-04T12:25:27.973Z,5.50
2019-01-04T12:27:57.969Z,5.40
2019-01-04T12:30:27.450Z,5.40
2019-01-04T12:32:56.878Z,5.40
2019-01-04T12:35:26.354Z,5.40
2019-01-04T12:37:55.757Z,5.50
2019-01-04T12:40:25.194Z,5.50
2019-01-04T12:42:56.023Z,5.60
2019-01-04T12:45:25.525Z,5.50
2019-01-04T12:47:56.769Z,5.50
2019-01-04T12:50:26.201Z,5.50
2019-01-04T12:52:55.625Z,5.50
2019-01-04T12:55:25.049Z,5.50
2019-01-04T12:57:54.470Z,5.50
2019-01-04T13:00:23.962Z,5.50
2019-01-04T13:02:53.558Z,5.50
2019-01-04T13:05:22.964Z,5.60
2019-01-04T13:07:52.381Z,5.60
2019-01-04T13:10:21.813Z,5.60
2019-01-04T13:12:51.418Z,5.70
2019-01-04T13:15:20.868Z,5.70
2019-01-04T13:17:50.279Z,5.70
2019-01-04T13:20:19.705Z,5.70
2019-01-04T13:22:49.318Z,5.70
2019-01-04T13:25:18.757Z,5.60
2019-01-04T13:27:48.176Z,5.60
2019-01-04T13:30:17.612Z,5.60
2019-01-04T13:32:47.030Z,5.60
2019-01-04T13:35:16.453Z,5.60
2019-01-04T13:37:46.317Z,5.60
2019-01-04T13:40:15.728Z,5.60
2019-01-04T13:42:45.141Z,5.60
2019-01-04T13:45:14.568Z,5.70
2019-01-04T13:47:44.135Z,5.80
2019-01-04T13:50:13.571Z,5.80
2019-01-04T13:52:43.022Z,5.90
2019-01-04T13:55:12.471Z,5.90
2019-01-04T13:57:41.893Z,5.90
2019-01-04T14:00:11.447Z,5.90
2019-01-04T14:02:40.881Z,6.00
2019-01-04T14:05:10.305Z,6.00
2019-01-04T14:07:39.725Z,6.20
2019-01-04T14:10:09.560Z,6.30
2019-01-04T14:12:38.981Z,6.30
2019-01-04T14:15:08.610Z,6.40
2019-01-04T14:17:38.055Z,6.50
2019-01-04T14:20:08.067Z,6.60
2019-01-04T14:22:37.472Z,6.60
2019-01-04T14:25:07.877Z,6.60
2019-01-04T14:27:37.300Z,6.60
2019-01-04T14:30:08.537Z,6.60
2019-01-04T15:46:41.330Z,7.00
2019-01-04T15:49:10.765Z,7.00
2019-01-04T15:51:40.213Z,7.00
2019-01-04T15:54:09.659Z,7.00
2019-01-04T15:56:39.098Z,7.10
2019-01-04T16:28:36.342Z,7.10
2019-01-04T16:31:05.761Z,7.10
2019-01-04T16:33:35.402Z,7.10
2019-01-04T16:36:05.381Z,7.10
2019-01-04T16:38:34.791Z,7.10
2019-01-04T16:41:04.341Z,7.10
2019-01-04T16:43:33.830Z,7.20
2019-01-04T16:46:04.542Z,7.10
2019-01-04T16:48:33.952Z,7.10
2019-01-04T16:51:03.547Z,7.10
2019-01-04T16:53:33.006Z,7.10
2019-01-04T16:56:02.518Z,7.20
2019-01-04T16:58:32.206Z,7.10
2019-01-04T17:01:01.650Z,7.10
2019-01-04T17:03:31.064Z,7.20
2019-01-04T17:06:00.734Z,7.20
2019-01-04T17:08:30.175Z,7.20
2019-01-04T17:10:59.677Z,7.20
2019-01-04T17:13:29.210Z,7.20
2019-01-04T17:15:58.642Z,7.20
2019-01-04T17:18:28.083Z,7.20
2019-01-04T17:20:57.537Z,7.20
2019-01-04T17:23:27.515Z,7.20
2019-01-04T17:25:56.969Z,7.20
2019-01-04T17:28:26.826Z,7.20
2019-01-04T17:30:56.250Z,7.20
2019-01-04T17:33:25.784Z,7.20
2019-01-04T17:35:55.268Z,7.20
2019-01-04T17:38:24.963Z,7.20
2019-01-04T17:40:55.416Z,7.20
2019-01-04T17:43:24.882Z,7.20
2019-01-04T17:45:54.618Z,7.30
2019-01-04T17:48:24.163Z,7.30
2019-01-04T17:50:53.600Z,7.30
2019-01-04T17:53:23.069Z,7.30
2019-01-04T17:55:53.480Z,7.30
2019-01-04T17:58:22.882Z,7.20
2019-01-04T18:00:52.314Z,7.20
2019-01-04T18:03:22.114Z,7.30
2019-01-04T18:05:51.719Z,7.30
2019-01-04T18:08:21.182Z,7.30
2019-01-04T18:10:50.670Z,7.30
2019-01-04T18:13:20.151Z,7.30
2019-01-04T18:15:49.570Z,7.30
2019-01-04T18:18:18.986Z,7.30
2019-01-04T18:20:48.972Z,7.40
2019-01-04T18:23:19.082Z,7.40
2019-01-04T18:25:48.914Z,7.40
2019-01-04T18:28:18.336Z,7.40
2019-01-04T18:30:47.770Z,7.40
2019-01-04T18:33:17.243Z,7.40
2019-01-04T18:35:46.740Z,7.40
2019-01-04T18:38:16.705Z,7.40
2019-01-04T18:40:46.190Z,7.40
2019-01-04T18:43:15.872Z,7.40
2019-01-04T18:45:45.325Z,7.40
2019-01-04T18:48:15.319Z,7.40
2019-01-04T18:50:45.798Z,7.40
2019-01-04T18:53:15.262Z,7.40
2019-01-04T18:55:45.113Z,7.30
2019-01-04T18:58:14.588Z,7.30
2019-01-04T19:00:44.019Z,7.30
2019-01-04T19:03:13.482Z,7.30
2019-01-04T19:05:42.899Z,7.30
2019-01-04T19:08:12.342Z,7.30
2019-01-04T19:10:42.035Z,7.30
2019-01-04T19:13:11.723Z,7.30
2019-01-04T19:15:41.155Z,7.30
2019-01-04T19:18:10.598Z,7.40
2019-01-04T19:20:40.133Z,7.40
2019-01-04T19:23:09.986Z,7.40
2019-01-04T19:25:39.446Z,7.40
2019-01-04T19:28:09.307Z,7.50
2019-01-04T19:30:38.816Z,7.50
2019-01-04T19:33:08.333Z,7.50
2019-01-04T19:35:38.554Z,7.50
2019-01-04T19:38:09.594Z,7.50
2019-01-04T19:40:39.403Z,7.50
2019-01-04T19:43:09.346Z,7.50
2019-01-04T19:45:38.778Z,7.50
2019-01-04T19:48:08.967Z,7.50
2019-01-04T19:50:39.369Z,7.50
2019-01-04T19:53:08.810Z,7.50
2019-01-04T19:55:38.620Z,7.50
2019-01-04T19:58:08.138Z,7.40
2019-01-04T20:00:37.642Z,7.40
2019-01-04T20:03:07.082Z,7.30
2019-01-04T20:06:35.402Z,7.30
2019-01-04T20:10:18.766Z,7.30
2019-01-04T20:14:03.978Z,7.30
2019-01-04T20:17:04.578Z,7.30
2019-01-04T20:19:53.983Z,7.20
2019-01-04T20:22:41.222Z,7.20
2019-01-04T20:25:43.851Z,7.20
2019-01-04T20:28:31.591Z,7.20
2019-01-04T20:31:20.089Z,7.20
2019-01-04T20:34:07.844Z,7.20
2019-01-04T20:37:08.500Z,7.20
2019-01-04T20:39:56.313Z,7.20
2019-01-04T20:42:43.603Z,7.20
2019-01-04T20:45:27.446Z,7.20
2019-01-04T20:48:17.034Z,7.20
2019-01-04T20:51:04.906Z,7.20
2019-01-04T20:53:52.353Z,7.20
2019-01-04T20:56:45.419Z,7.20
2019-01-04T20:59:33.208Z,7.20
2019-01-04T21:02:32.802Z,7.30
2019-01-04T21:05:20.343Z,7.20
2019-01-04T21:08:11.941Z,7.20
2019-01-04T21:11:11.002Z,7.20
2019-01-04T21:13:59.697Z,7.20
2019-01-04T21:17:02.662Z,7.20
2019-01-04T21:19:50.399Z,7.20
2019-01-04T21:22:38.054Z,7.20
2019-01-04T21:25:18.013Z,7.20
2019-01-04T21:27:59.898Z,7.20
2019-01-04T21:30:57.558Z,7.20
2019-01-04T21:33:44.816Z,7.30
2019-01-04T21:36:33.508Z,7.20
2019-01-04T21:39:26.530Z,7.20
2019-01-04T21:42:24.458Z,7.20
2019-01-04T21:45:21.650Z,7.10
2019-01-04T21:48:10.169Z,7.10
2019-01-04T21:50:55.230Z,7.10
2019-01-04T21:53:40.735Z,7.10
2019-01-04T21:56:29.328Z,7.10
2019-01-04T21:59:16.642Z,7.10
2019-01-04T22:02:04.152Z,7.20
2019-01-04T22:10:30.367Z,7.20
2019-01-04T22:13:12.250Z,7.20
2019-01-04T22:15:59.636Z,7.20
2019-01-04T22:18:51.679Z,7.10
2019-01-04T22:21:49.250Z,7.10
2019-01-04T22:24:39.004Z,7.10
2019-01-04T22:27:32.670Z,7.00
2019-01-04T22:30:10.977Z,7.10
2019-01-04T22:32:58.767Z,7.10
2019-01-04T22:35:46.269Z,7.10
2019-01-04T22:38:43.810Z,7.10
2019-01-04T22:41:37.643Z,7.10
2019-01-04T22:44:21.226Z,7.10
2019-01-04T22:47:09.729Z,7.20
2019-01-04T22:49:51.099Z,7.20
2019-01-04T22:52:38.334Z,7.20
2019-01-04T22:55:30.711Z,7.20
2019-01-04T22:58:28.283Z,7.20
2019-01-04T23:01:20.718Z,7.20
2019-01-04T23:04:07.938Z,7.20
2019-01-04T23:10:08.098Z,7.20
2019-01-04T23:12:55.778Z,7.20
2019-01-04T23:15:50.346Z,7.10
2019-01-04T23:18:37.037Z,7.10
2019-01-04T23:22:20.243Z,7.10
2019-01-04T23:25:10.310Z,7.10
2019-01-04T23:28:01.985Z,7.00
2019-01-04T23:30:40.951Z,7.00
2019-01-04T23:33:25.875Z,7.10
2019-01-04T23:36:13.234Z,7.10
2019-01-04T23:39:01.033Z,7.10
2019-01-04T23:41:56.118Z,7.10
2019-01-04T23:44:47.777Z,7.10
2019-01-04T23:47:39.478Z,7.20
2019-01-04T23:50:27.053Z,7.20
2019-01-04T23:53:14.648Z,7.20
2019-01-04T23:56:12.894Z,7.20
2019-01-04T23:59:10.049Z,7.30
